Savannah, GA

2:17 PM EDT on August 29, 2015 (GMT -0400)
Hunter Army Air Field | | Change Station
CLOSE
Current Station
Airport
Location: Savannah Hunter,
Elevation: 43 ft
Nearby Weather Stations

Elev 43 ft 32.01 °N, 81.15 °W | Updated 19 minutes ago

Scattered Clouds
Scattered Clouds
76 °F
Feels Like 76 °F
N
8
Wind Variable Wind from NE

Today
High -- | Low -- °F
--% Chance of Precip.
Yesterday
High -- | Low -- °F
Precip. -- in
6:57 AM 7:52 PM
Full, 100% visible
Pressure 30.14 in
Visibility 10.0 miles
Clouds Scattered Clouds 1000 ft
Dew Point 76 °F
Humidity 100%
Rainfall 0.26 in
Snow Depth Not available.
UV 10 out of 12
Pollen 4.90 out of 12
Air Quality Not available.
Flu Activity Not available.
METAR KSVN 291758Z AUTO 05007KT 10SM SCT010 25/25 A3013 RMK AO2 RAB1659E46 SLP206 P0011 60026 T02460246 10252 20235 58002 $
Pressure 30.14 in
Visibility 10.0 miles
Clouds Scattered Clouds 1000 ft
Dew Point 76 °F
Humidity 100%
Rainfall 0.26 in
Snow Depth Not available.
UV 10 out of 12
Pollen 4.90 out of 12
Air Quality Not available.
Flu Activity Not available.
METAR KSVN 291758Z AUTO 05007KT 10SM SCT010 25/25 A3013 RMK AO2 RAB1659E46 SLP206 P0011 60026 T02460246 10252 20235 58002 $

10-Day Weather Forecast

×

Almanac

Astronomy

Aug. 29, 2015 Rise Set
Actual Time
Civil Twilight
Nautical Twilight
Astronomical Twilight
Moon
Length of Visible Light
Length of Day
Tomorrow will be .
, % of the Moon is Illuminated

Today's Extremes

State Highs State Lows

Community

WunderPhotos

Upload Photos

1,850,752 photos uploaded!

WunderBlogs® & News

Nearby

Air Quality

  Air Quality AQ Index Pollutant
Not available.

Snow Depth

Station Depth Elevation

Earthquake Activity

City Distance Mag. Time & Date
Minimum magnitude displayed is 2.5.

Coastal Water Temperatures

Place Temperature

Stations

Nearby Weather Stations

Station Location Temp. Windchill Dew Point Humidity Wind Precip. Elev Updated Type